createdAt,value
2022-11-22T00:00:17.511Z,1.100
2022-11-22T00:01:11.342Z,1.200
2022-11-22T00:02:11.139Z,0.899
2022-11-22T00:03:11.275Z,0.800
2022-11-22T00:04:11.368Z,0.699
2022-11-22T00:05:11.295Z,1.799
2022-11-22T00:06:11.147Z,0.400
2022-11-22T00:07:10.831Z,1.100
2022-11-22T00:08:10.504Z,0.899
2022-11-22T00:09:11.535Z,0.400
2022-11-22T00:10:25.627Z,0.600
2022-11-22T00:11:10.762Z,0.300
2022-11-22T00:12:10.701Z,1.299
2022-11-22T00:13:11.451Z,1
2022-11-22T00:14:11.394Z,0.600
2022-11-22T00:15:11.427Z,0.699
2022-11-22T00:16:11.326Z,0.899
2022-11-22T00:17:11.357Z,1
2022-11-22T00:18:11.202Z,0.400
2022-11-22T00:19:10.771Z,1
2022-11-22T00:20:10.834Z,0.899
2022-11-22T00:21:10.791Z,1.299
2022-11-22T00:22:10.783Z,0.600
2022-11-22T00:23:10.650Z,0.699
2022-11-22T00:24:11.472Z,0.300
2022-11-22T00:25:11.229Z,0.800
2022-11-22T00:26:11.228Z,0.600
2022-11-22T00:27:11.167Z,0.699
2022-11-22T00:28:10.910Z,0.400
2022-11-22T00:29:10.538Z,0.300
2022-11-22T00:30:11.589Z,0.5
2022-11-22T00:31:11.435Z,0.699
2022-11-22T00:32:11.307Z,0.400
2022-11-22T00:34:10.999Z,0.100
2022-11-22T00:35:10.969Z,0.5
2022-11-22T00:36:10.868Z,0.600
2022-11-22T00:37:10.984Z,1
2022-11-22T00:38:10.989Z,0.400
2022-11-22T00:39:10.972Z,0.200
2022-11-22T00:41:10.963Z,0.800
2022-11-22T00:42:10.739Z,0.600
2022-11-22T00:43:11.301Z,0.400
2022-11-22T00:44:11.193Z,0.899
2022-11-22T00:45:11.493Z,0.5
2022-11-22T00:46:11.566Z,0.600
2022-11-22T00:47:10.716Z,0.400
2022-11-22T00:48:11.537Z,0.600
2022-11-22T00:49:11.546Z,0.800
2022-11-22T00:50:10.933Z,0.899
2022-11-22T00:51:10.819Z,0.400
2022-11-22T00:52:10.708Z,0.100
2022-11-22T00:53:10.840Z,0.300
2022-11-22T00:54:10.485Z,0.600
2022-11-22T00:55:11.839Z,0.5
2022-11-22T00:56:10.745Z,1.600
2022-11-22T00:57:10.729Z,0.5
2022-11-22T00:58:10.562Z,0.899
2022-11-22T00:59:11.591Z,0.699
2022-11-22T01:00:11.487Z,0.800
2022-11-22T01:01:12.349Z,0.5
2022-11-22T01:02:11.396Z,1.200
2022-11-22T01:03:11.384Z,0.5
2022-11-22T01:04:11.310Z,0.699
2022-11-22T01:05:11.525Z,0.5
2022-11-22T01:06:10.647Z,0.699
2022-11-22T01:07:11.611Z,0.5
2022-11-22T01:08:10.721Z,0.300
2022-11-22T01:09:11.601Z,1
2022-11-22T01:10:11.533Z,0.600
2022-11-22T01:11:10.549Z,0.899
2022-11-22T01:12:10.551Z,1.100
2022-11-22T01:13:11.575Z,0.699
2022-11-22T01:14:11.372Z,1.899
2022-11-22T01:15:11.443Z,1
2022-11-22T01:16:11.231Z,0.800
2022-11-22T01:17:11.584Z,0.899
2022-11-22T01:18:11.443Z,1.700
2022-11-22T01:19:11.282Z,1.399
2022-11-22T01:20:11.805Z,2
2022-11-22T01:21:11.049Z,1.5
2022-11-22T01:22:10.985Z,2.099
2022-11-22T01:23:10.875Z,1
2022-11-22T01:24:10.857Z,2
2022-11-22T01:25:10.917Z,6.199
2022-11-22T01:26:10.844Z,3
2022-11-22T01:27:10.630Z,2.400
2022-11-22T01:28:10.749Z,3.200
2022-11-22T01:29:11.362Z,3.099
2022-11-22T01:30:11.571Z,2.700
2022-11-22T01:31:10.604Z,3.599
2022-11-22T01:32:11.524Z,3.900
2022-11-22T01:33:11.500Z,2.700
2022-11-22T01:34:11.459Z,4.800
2022-11-22T01:36:11.513Z,5.5
2022-11-22T01:37:11.594Z,4.599
2022-11-22T01:39:10.549Z,5.699
2022-11-22T01:40:11.489Z,4.400
2022-11-22T01:41:11.340Z,5.900
2022-11-22T01:42:10.952Z,4.699
2022-11-22T01:43:10.730Z,6.5
2022-11-22T01:44:10.624Z,6.400
2022-11-22T01:45:10.754Z,6.099
2022-11-22T01:46:10.867Z,5.699
2022-11-22T01:48:11.244Z,6.199
2022-11-22T01:49:11.433Z,6.599
2022-11-22T01:50:11.527Z,8.5
2022-11-22T01:51:11.426Z,7.400
2022-11-22T01:52:11.227Z,7
2022-11-22T01:53:11.505Z,8.800
2022-11-22T01:54:11.480Z,10.30
2022-11-22T01:55:11.105Z,6.099
2022-11-22T01:56:11.045Z,5.800
2022-11-22T01:57:10.792Z,7.800
2022-11-22T01:58:10.947Z,8.300
2022-11-22T01:59:10.933Z,6
2022-11-22T02:00:11.732Z,8.199
2022-11-22T02:01:10.953Z,7.800
2022-11-22T02:02:11.126Z,6.599
2022-11-22T02:03:11.380Z,8.5
2022-11-22T02:04:11.303Z,7.400
2022-11-22T02:05:11.540Z,11.60
2022-11-22T02:06:11.586Z,8
2022-11-22T02:07:11.487Z,8.300
2022-11-22T02:08:11.580Z,6.800
2022-11-22T02:09:11.799Z,8.5
2022-11-22T02:10:10.938Z,6.699
2022-11-22T02:11:11.097Z,7.699
2022-11-22T02:12:10.913Z,10.60
2022-11-22T02:13:11.038Z,9.199
2022-11-22T02:14:11.144Z,7.900
2022-11-22T02:15:11.290Z,6.699
2022-11-22T02:16:11.081Z,7.900
2022-11-22T02:17:10.975Z,8
2022-11-22T02:18:11.105Z,9.600
2022-11-22T02:19:11.074Z,8.300
2022-11-22T02:20:11.141Z,7.099
2022-11-22T02:21:10.877Z,6.5
2022-11-22T02:22:11.421Z,7.699
2022-11-22T02:23:11.163Z,11.80
2022-11-22T02:24:10.992Z,8.5
2022-11-22T02:25:10.840Z,8.600
2022-11-22T02:26:10.634Z,7.699
2022-11-22T02:27:11.583Z,8.699
2022-11-22T02:28:11.282Z,8.5
2022-11-22T02:29:10.796Z,8.199
2022-11-22T02:30:11.258Z,9.300
2022-11-22T02:31:11.418Z,10.19
2022-11-22T02:32:11.255Z,7.800
2022-11-22T02:33:11.463Z,8.5
2022-11-22T02:34:11.465Z,8.899
2022-11-22T02:35:11.743Z,10.60
2022-11-22T02:36:11.669Z,8.399
2022-11-22T02:37:11.509Z,9.199
2022-11-22T02:38:11.183Z,8.399
2022-11-22T02:39:11.197Z,6.199
2022-11-22T02:40:10.999Z,6.699
2022-11-22T02:41:10.952Z,8.300
2022-11-22T02:42:10.808Z,7.199
2022-11-22T02:43:11.468Z,7.5
2022-11-22T02:44:11.261Z,6.699
2022-11-22T02:45:11.113Z,5.599
2022-11-22T02:46:10.853Z,8.399
2022-11-22T02:47:10.867Z,7.400
2022-11-22T02:48:11.611Z,6.400
2022-11-22T02:49:11.340Z,7.699
2022-11-22T02:50:11.545Z,7.400
2022-11-22T02:51:11.580Z,7.099
2022-11-22T02:52:11.623Z,9.699
2022-11-22T02:53:11.570Z,9.300
2022-11-22T02:54:11.436Z,7.5
2022-11-22T02:55:11.611Z,4.599
2022-11-22T02:56:10.780Z,6.800
2022-11-22T02:57:10.925Z,7.400
2022-11-22T02:58:10.688Z,5.300
2022-11-22T02:59:10.910Z,6
2022-11-22T03:00:11.712Z,5.599
2022-11-22T03:01:11.309Z,8
2022-11-22T03:02:11.565Z,5.800
2022-11-22T03:03:11.402Z,5.300
2022-11-22T03:04:11.255Z,6.5
2022-11-22T03:05:11.446Z,6.800
2022-11-22T03:06:11.474Z,7.300
2022-11-22T03:07:11.534Z,4.400
2022-11-22T03:08:10.891Z,7.300
2022-11-22T03:09:10.975Z,7.099
2022-11-22T03:10:11.332Z,4.699
2022-11-22T03:11:11.271Z,6.400
2022-11-22T03:12:11.135Z,6.5
2022-11-22T03:13:11.067Z,7
2022-11-22T03:14:11.049Z,7.099
2022-11-22T03:15:11.550Z,9.300
2022-11-22T03:16:11.212Z,6.5
2022-11-22T03:17:11.191Z,6.099
2022-11-22T03:18:11.114Z,6.599
2022-11-22T03:19:11.054Z,6.199
2022-11-22T03:20:11.048Z,7.099
2022-11-22T03:21:11.234Z,7.599
2022-11-22T03:22:11.644Z,6.800
2022-11-22T03:23:11.786Z,8.800
2022-11-22T03:24:11.380Z,6.300
2022-11-22T03:25:11.783Z,6.900
2022-11-22T03:26:10.950Z,7.5
2022-11-22T03:27:11.251Z,6.300
2022-11-22T03:28:11.423Z,5.599
2022-11-22T03:29:11.521Z,5.900
2022-11-22T03:31:11.646Z,5
2022-11-22T03:32:11.781Z,8.600
2022-11-22T03:33:10.846Z,7.199
2022-11-22T03:34:10.633Z,6.300
2022-11-22T03:35:11.630Z,4.900
2022-11-22T03:36:10.927Z,6.199
2022-11-22T03:37:11.368Z,5.699
2022-11-22T03:38:10.990Z,5.300
2022-11-22T03:39:11.213Z,5.400
2022-11-22T03:40:11.734Z,8.300
2022-11-22T03:41:11.103Z,8.5
2022-11-22T03:42:11.259Z,6.599
2022-11-22T03:43:10.869Z,5.300
2022-11-22T03:45:12.127Z,5.599
2022-11-22T03:47:10.690Z,4
2022-11-22T03:48:10.711Z,6.900
2022-11-22T03:49:11.477Z,4.099
2022-11-22T03:50:11.361Z,5.300
2022-11-22T03:51:11.453Z,6
2022-11-22T03:52:11.615Z,6.199
2022-11-22T03:53:11.369Z,5.300
2022-11-22T03:54:11.441Z,6
2022-11-22T03:56:11.349Z,7.5
2022-11-22T03:57:11.165Z,7.900
2022-11-22T03:58:11.079Z,7.800
2022-11-22T03:59:11.056Z,4.800
2022-11-22T04:00:11.794Z,7.099
2022-11-22T04:01:16.335Z,3.900
2022-11-22T04:02:11.559Z,5.199
2022-11-22T04:03:11.380Z,5.900
2022-11-22T04:04:11.649Z,6.900
2022-11-22T04:05:11.892Z,7
2022-11-22T04:06:10.805Z,6.800
2022-11-22T04:07:11.206Z,6.5
2022-11-22T04:09:11.326Z,6.400
2022-11-22T04:10:11.401Z,6
2022-11-22T04:11:11.021Z,8.5
2022-11-22T04:12:11.498Z,8.399
2022-11-22T04:13:11.451Z,6.599
2022-11-22T04:14:11.589Z,5.599
2022-11-22T04:15:11.127Z,6.099
2022-11-22T04:16:11.555Z,6.199
2022-11-22T04:17:11.819Z,6.5
2022-11-22T04:18:11.326Z,5.800
2022-11-22T04:19:11.328Z,7.699
2022-11-22T04:20:11.942Z,6.699
2022-11-22T04:21:11.152Z,8.399
2022-11-22T04:22:11.379Z,8.600
2022-11-22T04:23:11.174Z,9.899
2022-11-22T04:24:11.055Z,7.099
2022-11-22T04:25:11.484Z,9.800
2022-11-22T04:26:11.526Z,13.10
2022-11-22T04:27:11.537Z,10.19
2022-11-22T04:28:10.661Z,9.600
2022-11-22T04:29:10.911Z,8.699
2022-11-22T04:30:13.775Z,8.899
2022-11-22T04:32:11.268Z,7.800
2022-11-22T04:33:11.557Z,8.899
2022-11-22T04:34:10.675Z,9.199
2022-11-22T04:35:10.967Z,8.600
2022-11-22T04:36:13.451Z,7.400
2022-11-22T04:37:10.892Z,9.5
2022-11-22T04:38:11.003Z,6.900
2022-11-22T04:39:11.168Z,9.5
2022-11-22T04:40:11.474Z,9.300
2022-11-22T04:41:11.925Z,8.699
2022-11-22T04:42:11.166Z,7.800
2022-11-22T04:43:11.372Z,8.5
2022-11-22T04:44:11.494Z,8
2022-11-22T04:45:11.907Z,6.699
2022-11-22T04:46:11.222Z,9.800
2022-11-22T04:47:11.229Z,7.599
2022-11-22T04:48:11.742Z,7.699
2022-11-22T04:49:11.127Z,7.199
2022-11-22T04:50:11.499Z,6.400
2022-11-22T04:51:11.359Z,9.600
2022-11-22T04:52:11.484Z,9.800
2022-11-22T04:53:11.782Z,8.899
2022-11-22T04:54:10.956Z,9
2022-11-22T04:55:11.335Z,7.099
2022-11-22T04:56:11.638Z,8.199
2022-11-22T04:57:11.713Z,6.5
2022-11-22T04:58:10.884Z,7.199
2022-11-22T04:59:11.159Z,8.899
2022-11-22T05:00:12.032Z,6
2022-11-22T05:01:11.657Z,7.599
2022-11-22T05:02:11.023Z,7
2022-11-22T05:03:11.893Z,7.300
2022-11-22T05:04:11.213Z,7.699
2022-11-22T05:05:11.204Z,5.800
2022-11-22T05:06:11.644Z,6.099
2022-11-22T05:07:11.772Z,5.400
2022-11-22T05:08:11.201Z,6.199
2022-11-22T05:09:11.363Z,6.5
2022-11-22T05:10:11.855Z,4.800
2022-11-22T05:11:10.901Z,6.699
2022-11-22T05:12:10.936Z,7.199
2022-11-22T05:13:11.152Z,8.600
2022-11-22T05:14:11.117Z,6.699
2022-11-22T05:15:11.570Z,7.199
2022-11-22T05:16:10.926Z,8.5
2022-11-22T05:17:13.385Z,6.5
2022-11-22T05:18:10.982Z,6.099
2022-11-22T05:19:11.345Z,7.300
2022-11-22T05:20:11.631Z,6.400
2022-11-22T05:21:10.841Z,6.900
2022-11-22T05:22:10.923Z,6.699
2022-11-22T05:23:11.392Z,8.100
2022-11-22T05:24:11.785Z,6.199
2022-11-22T05:25:11.196Z,5.699
2022-11-22T05:26:10.819Z,7.800
2022-11-22T05:27:11.020Z,5.800
2022-11-22T05:28:11.261Z,5.5
2022-11-22T05:29:11.558Z,8.800
2022-11-22T05:30:11.598Z,7.400
2022-11-22T05:32:11.758Z,8.899
2022-11-22T05:33:11.270Z,9.899
2022-11-22T05:34:11.548Z,6
2022-11-22T05:35:11.963Z,7
2022-11-22T05:36:11.278Z,9.199
2022-11-22T05:37:11.601Z,10.19
2022-11-22T05:38:10.778Z,10.39
2022-11-22T05:39:11.074Z,8.800
2022-11-22T05:40:11.558Z,8.600
2022-11-22T05:41:11.175Z,9.600
2022-11-22T05:42:11.545Z,5.800
2022-11-22T05:43:10.992Z,6.800
2022-11-22T05:44:11.587Z,7.800
2022-11-22T05:45:10.881Z,7
2022-11-22T05:46:11.187Z,8.699
2022-11-22T05:47:11.405Z,7.199
2022-11-22T05:48:11.603Z,8.100
2022-11-22T05:49:10.833Z,7.699
2022-11-22T05:50:11.627Z,8.5
2022-11-22T05:51:10.850Z,8
2022-11-22T05:52:10.922Z,6.099
2022-11-22T05:53:11.006Z,7.400
2022-11-22T05:54:11.468Z,7.300
2022-11-22T05:55:12.140Z,6.800
2022-11-22T05:57:11.710Z,9.100
2022-11-22T05:58:11.257Z,7.900
2022-11-22T05:59:11.476Z,9
2022-11-22T06:01:11.345Z,8.199
2022-11-22T06:02:11.903Z,7.400
2022-11-22T06:03:11.292Z,6.099
2022-11-22T06:04:11.390Z,7.400
2022-11-22T06:05:11.676Z,7.800
2022-11-22T06:06:10.939Z,9.100
2022-11-22T06:07:11.379Z,8.600
2022-11-22T06:08:10.936Z,7.599
2022-11-22T06:09:11.666Z,9.600
2022-11-22T06:10:11.376Z,9.100
2022-11-22T06:11:11.710Z,6.800
2022-11-22T06:12:11.019Z,7.099
2022-11-22T06:13:11.333Z,6.099
2022-11-22T06:14:11.801Z,8.899
2022-11-22T06:15:11.663Z,8.699
2022-11-22T06:16:10.995Z,6.800
2022-11-22T06:17:11.443Z,9.100
2022-11-22T06:18:11.879Z,9
2022-11-22T06:19:11.161Z,7.300
2022-11-22T06:20:11.617Z,8.199
2022-11-22T06:21:11.310Z,8.899
2022-11-22T06:22:11.814Z,7.199
2022-11-22T06:24:11.529Z,5.199
2022-11-22T06:25:11.724Z,9.300
2022-11-22T06:26:11.062Z,7.800
2022-11-22T06:27:11.179Z,9.300
2022-11-22T06:28:11.349Z,7.400
2022-11-22T06:29:11.685Z,7
2022-11-22T06:30:11.192Z,7.099
2022-11-22T06:31:11.869Z,7
2022-11-22T06:32:11.268Z,7.400
2022-11-22T06:33:11.667Z,7.5
2022-11-22T06:35:11.312Z,7.099
2022-11-22T06:36:11.745Z,5.400
2022-11-22T06:37:11.228Z,6.900
2022-11-22T06:38:11.605Z,7.300
2022-11-22T06:39:10.938Z,6.5
2022-11-22T06:41:11.883Z,8.199
2022-11-22T06:42:11.084Z,6.900
2022-11-22T06:43:11.559Z,6.099
2022-11-22T06:44:10.832Z,5.300
2022-11-22T06:45:10.865Z,5.400
2022-11-22T06:46:11.359Z,5.5
2022-11-22T06:47:11.613Z,7.800
2022-11-22T06:48:11.002Z,7.199
2022-11-22T06:49:11.347Z,7.400
2022-11-22T06:50:11.767Z,6.400
2022-11-22T06:51:10.892Z,7.800
2022-11-22T06:52:11.246Z,6.699
2022-11-22T06:53:32.372Z,4.599
2022-11-22T06:54:11.660Z,5.5
2022-11-22T06:55:34.570Z,8.199
2022-11-22T06:56:11.638Z,5.800
2022-11-22T06:57:11.794Z,7.400
2022-11-22T06:58:11.089Z,7.300
2022-11-22T06:59:11.292Z,6.5
2022-11-22T07:00:12.184Z,7.800
2022-11-22T07:01:11.833Z,5.5
2022-11-22T07:02:11.515Z,6.300
2022-11-22T07:03:11.825Z,6.599
2022-11-22T07:05:25.092Z,5.199
2022-11-22T07:06:11.159Z,7.400
2022-11-22T07:07:11.794Z,7.300
2022-11-22T07:08:14.012Z,5.5
2022-11-22T07:09:11.715Z,6.699
2022-11-22T07:10:11.402Z,5
2022-11-22T07:11:11.923Z,5.099
2022-11-22T07:12:11.414Z,7.400
2022-11-22T07:13:11.679Z,6.099
2022-11-22T07:14:11.003Z,8.100
2022-11-22T07:15:11.637Z,4.800
2022-11-22T07:16:11.446Z,8.100
2022-11-22T07:17:19.790Z,7.5
2022-11-22T07:18:11.443Z,7.800
2022-11-22T07:19:11.913Z,8
2022-11-22T07:20:11.586Z,8.199
2022-11-22T07:21:13.264Z,6.800
2022-11-22T07:22:11.336Z,8.5
2022-11-22T07:23:11.678Z,6.099
2022-11-22T07:24:11.083Z,8.399
2022-11-22T07:25:11.597Z,5.400
2022-11-22T07:26:12.102Z,7.800
2022-11-22T07:27:11.498Z,6.599
2022-11-22T07:28:11.007Z,6.300
2022-11-22T07:29:11.319Z,6.800
2022-11-22T07:30:11.967Z,7.400
2022-11-22T07:31:11.595Z,6.400
2022-11-22T07:32:11.223Z,8.199
2022-11-22T07:33:11.600Z,7.699
2022-11-22T07:34:11.155Z,7
2022-11-22T07:35:12.053Z,8.199
2022-11-22T07:36:11.389Z,6.800
2022-11-22T07:37:11.556Z,6.300
2022-11-22T07:38:11.940Z,7.599
2022-11-22T07:39:11.539Z,6.400
2022-11-22T07:40:12.278Z,7.099
2022-11-22T07:41:11.741Z,6
2022-11-22T07:42:11.248Z,7.199
2022-11-22T07:43:11.780Z,7.599
2022-11-22T07:44:11.323Z,7.099
2022-11-22T07:45:12.145Z,6.800
2022-11-22T07:46:11.714Z,5.400
2022-11-22T07:47:11.142Z,6.599
2022-11-22T07:48:11.163Z,6.800
2022-11-22T07:49:11.867Z,8
2022-11-22T07:50:11.587Z,6.199
2022-11-22T07:51:11.410Z,8
2022-11-22T07:52:12.171Z,7.699
2022-11-22T07:53:11.934Z,6.699
2022-11-22T07:54:11.318Z,8
2022-11-22T07:55:14.216Z,6.099
2022-11-22T07:56:11.269Z,6.599
2022-11-22T07:57:12.063Z,8.899
2022-11-22T07:58:11.489Z,6.300
2022-11-22T08:00:12.364Z,5.400
2022-11-22T08:01:11.191Z,8.199
2022-11-22T08:02:13.807Z,11
2022-11-22T08:03:15.602Z,6.599
2022-11-22T08:04:11.346Z,6.099
2022-11-22T08:05:12.019Z,6.400
2022-11-22T08:06:11.711Z,7.199
2022-11-22T08:07:11.235Z,5.400
2022-11-22T08:08:11.710Z,6.699
2022-11-22T08:09:11.850Z,6.5
2022-11-22T08:10:11.532Z,7.699
2022-11-22T08:11:11.137Z,6.5
2022-11-22T08:12:11.845Z,7.099
2022-11-22T08:13:11.200Z,5.099
2022-11-22T08:14:11.969Z,6.599
2022-11-22T08:15:11.692Z,7.699
2022-11-22T08:16:11.110Z,5.699
2022-11-22T08:18:11.326Z,7.199
2022-11-22T08:20:11.383Z,7
2022-11-22T08:21:11.898Z,6.599
2022-11-22T08:22:11.414Z,6
2022-11-22T08:23:11.766Z,6.400
2022-11-22T08:24:11.080Z,6.800
2022-11-22T08:25:11.657Z,5
2022-11-22T08:26:11.062Z,7.800
2022-11-22T08:27:11.766Z,5.800
2022-11-22T08:28:11.483Z,6.699
2022-11-22T08:29:14.333Z,7.699
2022-11-22T08:30:11.539Z,6.5
2022-11-22T08:31:11.080Z,5.800
2022-11-22T08:32:11.355Z,6.5
2022-11-22T08:33:11.914Z,9.399
2022-11-22T08:34:11.602Z,6.699
2022-11-22T08:35:10.998Z,6.900
2022-11-22T08:36:11.457Z,7.099
2022-11-22T08:37:11.673Z,5.900
2022-11-22T08:38:11.176Z,8.5
2022-11-22T08:39:11.436Z,7.5
2022-11-22T08:40:12.041Z,10
2022-11-22T08:41:11.380Z,6.099
2022-11-22T08:42:11.910Z,8.100
2022-11-22T08:43:11.073Z,5.199
2022-11-22T08:44:11.563Z,7.199
2022-11-22T08:45:11.157Z,6.599
2022-11-22T08:46:11.578Z,7.099
2022-11-22T08:47:11.916Z,7.599
2022-11-22T08:48:11.029Z,7.5
2022-11-22T08:49:11.267Z,6.900
2022-11-22T08:51:11.055Z,5.5
2022-11-22T08:52:11.239Z,6.099
2022-11-22T08:53:11.593Z,5.699
2022-11-22T08:54:11.799Z,5.599
2022-11-22T08:55:11.107Z,5.699
2022-11-22T08:56:11.584Z,6.599
2022-11-22T08:57:11.824Z,5.099
2022-11-22T08:58:11.045Z,8.300
2022-11-22T08:59:11.584Z,5.400
2022-11-22T09:00:11.505Z,5.699
2022-11-22T09:01:11.694Z,6.199
2022-11-22T09:02:11.124Z,5.699
2022-11-22T09:03:11.715Z,6.199
2022-11-22T09:04:11.197Z,6.300
2022-11-22T09:05:11.774Z,6.800
2022-11-22T09:08:26.105Z,6.300
2022-11-22T09:09:43.202Z,6.5
2022-11-22T09:10:12.128Z,6.400
2022-11-22T09:11:11.331Z,5.400
2022-11-22T09:12:12.107Z,6.800
2022-11-22T09:13:11.689Z,4.400
2022-11-22T09:14:11.033Z,5.199
2022-11-22T09:15:12.071Z,6.199
2022-11-22T09:16:11.425Z,5.400
2022-11-22T09:17:16.239Z,8.199
2022-11-22T09:18:11.381Z,4.400
2022-11-22T09:19:11.992Z,5.900
2022-11-22T09:20:11.957Z,5.5
2022-11-22T09:21:11.141Z,7
2022-11-22T09:22:11.255Z,6.099
2022-11-22T09:23:12.218Z,5.800
2022-11-22T09:24:11.401Z,6.800
2022-11-22T09:25:12.145Z,7.300
2022-11-22T09:26:11.863Z,4.800
2022-11-22T09:27:11.311Z,6.300
2022-11-22T09:28:11.590Z,5.599
2022-11-22T09:29:11.831Z,6.199
2022-11-22T09:30:11.613Z,4
2022-11-22T09:31:11.335Z,3.799
2022-11-22T09:32:11.809Z,5.900
2022-11-22T09:33:11.482Z,5.099
2022-11-22T09:34:16.569Z,6.099
2022-11-22T09:35:11.529Z,3.700
2022-11-22T09:36:11.571Z,4.5
2022-11-22T09:37:11.057Z,5.099
2022-11-22T09:38:11.462Z,5.5
2022-11-22T09:39:11.720Z,5
2022-11-22T09:40:10.799Z,7.099
2022-11-22T09:41:11.226Z,4.199
2022-11-22T09:42:11.330Z,4.300
2022-11-22T09:43:11.813Z,5.900
2022-11-22T09:44:11.317Z,3.900
2022-11-22T09:45:12.043Z,5.400
2022-11-22T09:46:11.351Z,4.199
2022-11-22T09:47:11.784Z,4.699
2022-11-22T09:48:11.382Z,3.700
2022-11-22T09:49:11.579Z,2.900
2022-11-22T09:50:11.175Z,4.599
2022-11-22T09:51:11.774Z,3.700
2022-11-22T09:52:11.298Z,4
2022-11-22T09:53:11.939Z,4.400
2022-11-22T09:54:11.413Z,5.5
2022-11-22T09:55:12.144Z,5.400
2022-11-22T09:56:25.260Z,5.199
2022-11-22T09:57:11.502Z,3.5
2022-11-22T09:58:11.761Z,3.799
2022-11-22T09:59:11.089Z,4.5
2022-11-22T10:01:11.941Z,4.099
2022-11-22T10:02:39.245Z,3.799
2022-11-22T10:03:10.761Z,3.400
2022-11-22T10:04:11.284Z,4
2022-11-22T10:05:12.024Z,3.599
2022-11-22T10:06:11.190Z,3.700
2022-11-22T10:07:11.645Z,4.900
2022-11-22T10:08:11.709Z,4.099
2022-11-22T10:10:11.408Z,3.700
2022-11-22T10:11:11.626Z,3.200
2022-11-22T10:12:11.043Z,2.900
2022-11-22T10:13:11.269Z,3.700
2022-11-22T10:14:11.581Z,4.199
2022-11-22T10:15:11.977Z,2.5
2022-11-22T10:16:11.225Z,2.900
2022-11-22T10:17:11.369Z,3
2022-11-22T10:18:11.841Z,2.700
2022-11-22T10:19:10.904Z,2
2022-11-22T10:20:11.517Z,4.300
2022-11-22T10:21:10.816Z,3.599
2022-11-22T10:22:11.246Z,3.799
2022-11-22T10:23:11.442Z,3.099
2022-11-22T10:24:11.663Z,3.599
2022-11-22T10:25:10.978Z,3.5
2022-11-22T10:26:11.449Z,2.900
2022-11-22T10:27:10.746Z,3.5
2022-11-22T10:28:11.060Z,3.200
2022-11-22T10:29:11.433Z,2.400
2022-11-22T10:30:12.349Z,3.599
2022-11-22T10:31:12.140Z,2.900
2022-11-22T10:32:12.037Z,2.5
2022-11-22T10:33:11.564Z,3.099
2022-11-22T10:34:11.423Z,2.700
2022-11-22T10:35:11.162Z,3.599
2022-11-22T10:36:11.384Z,2.599
2022-11-22T10:37:11.858Z,3.5
2022-11-22T10:38:11.288Z,3
2022-11-22T10:39:11.295Z,3.099
2022-11-22T10:40:11.815Z,3
2022-11-22T10:41:11.456Z,2.5
2022-11-22T10:42:11.122Z,2.900
2022-11-22T10:44:11.249Z,3
2022-11-22T10:45:11.921Z,1.899
2022-11-22T10:46:11.400Z,3
2022-11-22T10:47:11.022Z,2.299
2022-11-22T10:48:11.342Z,2.799
2022-11-22T10:49:11.588Z,3
2022-11-22T10:50:11.255Z,3.400
2022-11-22T10:51:11.456Z,2.5
2022-11-22T10:52:10.982Z,1.799
2022-11-22T10:53:11.487Z,1.899
2022-11-22T10:54:10.882Z,3.099
2022-11-22T10:56:11.507Z,1.5
2022-11-22T10:57:11.141Z,3.700
2022-11-22T10:58:11.615Z,2.900
2022-11-22T10:59:10.910Z,2.599
2022-11-22T11:00:12.070Z,2.400
2022-11-22T11:01:12.046Z,2.700
2022-11-22T11:02:11.553Z,2.400
2022-11-22T11:03:11.815Z,2
2022-11-22T11:04:11.506Z,3
2022-11-22T11:06:37.918Z,2.299
2022-11-22T11:07:13.146Z,2.5
2022-11-22T11:08:39.367Z,2.700
2022-11-22T11:10:09.733Z,2.400
2022-11-22T11:10:15.783Z,2.599
2022-11-22T11:11:11.624Z,2.299
2022-11-22T11:12:11.279Z,1.899
2022-11-22T11:13:11.925Z,2.700
2022-11-22T11:14:11.784Z,1.799
2022-11-22T11:15:11.771Z,2.200
2022-11-22T11:16:11.446Z,3
2022-11-22T11:18:11.485Z,3.5
2022-11-22T11:19:11.902Z,3.299
2022-11-22T11:20:11.815Z,3.400
2022-11-22T11:21:11.402Z,3.099
2022-11-22T11:22:11.161Z,2.200
2022-11-22T11:24:11.332Z,2.599
2022-11-22T11:25:11.997Z,3
2022-11-22T11:27:11.371Z,3.799
2022-11-22T11:28:10.954Z,2.299
2022-11-22T11:29:11.782Z,3.299
2022-11-22T11:30:11.432Z,3.099
2022-11-22T11:31:12.094Z,1.799
2022-11-22T11:32:11.637Z,3.200
2022-11-22T11:33:11.371Z,2.700
2022-11-22T11:34:12.059Z,1.899
2022-11-22T11:35:11.546Z,3.299
2022-11-22T11:36:11.308Z,3.200
2022-11-22T11:37:11.596Z,2.799
2022-11-22T11:38:11.929Z,2.099
2022-11-22T11:39:11.386Z,2.400
2022-11-22T11:40:09.913Z,1.700
2022-11-22T11:41:11.417Z,2.099
2022-11-22T11:42:11.665Z,2.700
2022-11-22T11:43:11.819Z,1
2022-11-22T11:44:11.291Z,2.400
2022-11-22T11:45:11.621Z,2
2022-11-22T11:46:11.309Z,1.799
2022-11-22T11:48:11.093Z,2.200
2022-11-22T11:49:11.344Z,1.600
2022-11-22T11:50:12.080Z,2.299
2022-11-22T11:51:11.325Z,3.599
2022-11-22T11:52:11.771Z,1.799
2022-11-22T11:54:11.153Z,2.099
2022-11-22T11:56:11.886Z,1.899
2022-11-22T11:58:16.071Z,0.699
2022-11-22T11:59:16.120Z,2.799
2022-11-22T12:00:12.245Z,2.299
2022-11-22T12:01:15.923Z,2.200
2022-11-22T12:02:11.580Z,2.299
2022-11-22T12:03:11.889Z,2.200
2022-11-22T12:04:11.133Z,1.5
2022-11-22T12:05:16.993Z,1.799
2022-11-22T12:06:11.402Z,1.5
2022-11-22T12:07:11.271Z,1.399
2022-11-22T12:08:11.496Z,1.200
2022-11-22T12:09:11.767Z,2.099
2022-11-22T12:10:10.981Z,1.700
2022-11-22T12:11:10.912Z,1
2022-11-22T12:12:11.305Z,1.399
2022-11-22T12:13:25.493Z,0.899
2022-11-22T12:14:37.599Z,1.899
2022-11-22T12:15:12.360Z,4
2022-11-22T12:16:11.805Z,2.599
2022-11-22T12:17:11.767Z,1
2022-11-22T12:18:11.073Z,3.299
2022-11-22T12:19:11.255Z,1.299
2022-11-22T12:20:11.422Z,1
2022-11-22T12:21:25.707Z,0.699
2022-11-22T12:23:25.541Z,0.600
2022-11-22T12:24:42.782Z,1.799
2022-11-22T12:25:31.619Z,0.600
2022-11-22T12:26:11.031Z,0.400
2022-11-22T12:27:11.471Z,0.5
2022-11-22T12:28:10.756Z,0.800
2022-11-22T12:30:12.298Z,1.5
2022-11-22T12:31:15.018Z,0.5
2022-11-22T12:32:12.021Z,1.5
2022-11-22T12:33:30.612Z,0.400
2022-11-22T12:34:10.988Z,0.300
2022-11-22T12:35:11.326Z,1.200
2022-11-22T12:36:11.636Z,0.699
2022-11-22T12:37:11.042Z,0.300
2022-11-22T12:38:11.329Z,1.100
2022-11-22T12:39:11.812Z,0.699
2022-11-22T12:40:10.929Z,2
2022-11-22T12:41:11.329Z,0.600
2022-11-22T12:43:11.422Z,0.699
2022-11-22T12:44:12.056Z,0.899
2022-11-22T12:45:11.320Z,1
2022-11-22T12:46:11.443Z,0.600
2022-11-22T12:47:11.888Z,0.699
2022-11-22T12:48:11.243Z,1.600
2022-11-22T12:49:11.180Z,0.400
2022-11-22T12:50:11.862Z,0.699
2022-11-22T12:51:11.378Z,1
2022-11-22T12:52:11.871Z,1.200
2022-11-22T12:53:11.208Z,0.200
2022-11-22T12:54:11.788Z,1.600
2022-11-22T12:55:11.164Z,0.5
2022-11-22T12:56:11.391Z,0.400
2022-11-22T12:58:11.088Z,1
2022-11-22T12:59:11.244Z,0.800
2022-11-22T13:00:12.637Z,0.699
2022-11-22T13:01:11.320Z,1.200
2022-11-22T13:03:11.855Z,0.400
2022-11-22T13:04:11.923Z,1.299
2022-11-22T13:05:11.577Z,0.899
2022-11-22T13:06:11.451Z,0.800
2022-11-22T13:07:12.061Z,0.600
2022-11-22T13:08:12.323Z,1.799
2022-11-22T13:09:11.419Z,0.600
2022-11-22T13:10:12.355Z,0.800
2022-11-22T13:11:11.715Z,0.899
2022-11-22T13:12:11.657Z,1.200
2022-11-22T13:13:11.461Z,0.899
2022-11-22T13:15:12.412Z,0.699
2022-11-22T13:16:11.534Z,4
2022-11-22T13:17:11.273Z,1.299
2022-11-22T13:18:12.061Z,1.399
2022-11-22T13:19:11.821Z,1.299
2022-11-22T13:20:11.639Z,0.5
2022-11-22T13:21:11.186Z,0.800
2022-11-22T13:22:11.844Z,0.5
2022-11-22T13:23:11.599Z,1.100
2022-11-22T13:24:11.116Z,0.5
2022-11-22T13:25:11.245Z,0.899
2022-11-22T13:26:14.892Z,1.299
2022-11-22T13:27:11.806Z,0.300
2022-11-22T13:28:11.109Z,1
2022-11-22T13:29:11.417Z,0.5
2022-11-22T13:30:12.226Z,0.300
2022-11-22T13:32:11.644Z,0.400
2022-11-22T13:34:12.238Z,0.899
2022-11-22T13:35:12.091Z,0.600
2022-11-22T13:36:11.763Z,0.5
2022-11-22T13:37:11.072Z,0.600
2022-11-22T13:39:11.566Z,0.5
2022-11-22T13:40:11.622Z,0.300
2022-11-22T13:41:11.507Z,0.200
2022-11-22T13:42:11.163Z,0.400
2022-11-22T13:43:15.609Z,1
2022-11-22T13:44:12.158Z,0.800
2022-11-22T13:45:12.155Z,0.600
2022-11-22T13:46:11.798Z,0.400
2022-11-22T13:47:11.161Z,0.899
2022-11-22T13:49:11.434Z,0.5
2022-11-22T13:50:11.219Z,0.300
2022-11-22T13:52:11.829Z,0.699
2022-11-22T13:53:11.746Z,0.800
2022-11-22T13:54:12.264Z,0.600
2022-11-22T13:55:15.155Z,0.699